createdAt,value
2023-04-23T00:02:50.316Z,100.00
2023-04-23T00:07:41.033Z,100.00
2023-04-23T00:12:32.942Z,100.00
2023-04-23T00:17:25.861Z,100.00
2023-04-23T00:22:17.314Z,100.00
2023-04-23T00:27:07.331Z,100.00
2023-04-23T00:31:58.406Z,100.00
2023-04-23T00:36:55.190Z,100.00
2023-04-23T00:41:45.499Z,100.00
2023-04-23T00:46:35.819Z,100.00
2023-04-23T00:51:26.228Z,100.00
2023-04-23T00:56:20.658Z,100.00
2023-04-23T01:01:10.810Z,100.00
2023-04-23T01:06:01.385Z,100.00
2023-04-23T01:10:52.651Z,100.00
2023-04-23T01:15:47.204Z,100.00
2023-04-23T01:20:42.423Z,100.00
2023-04-23T01:25:35.301Z,100.00
2023-04-23T01:30:28.156Z,100.00
2023-04-23T01:35:21.001Z,100.00
2023-04-23T01:40:14.583Z,100.00
2023-04-23T01:45:08.263Z,100.00
2023-04-23T01:49:59.249Z,100.00
2023-04-23T01:54:49.390Z,100.00
2023-04-23T01:59:40.599Z,100.00
2023-04-23T02:04:33.531Z,100.00
2023-04-23T02:09:23.336Z,100.00
2023-04-23T02:14:14.215Z,100.00
2023-04-23T02:19:04.747Z,100.00
2023-04-23T02:23:57.698Z,100.00
2023-04-23T02:28:49.717Z,100.00
2023-04-23T02:33:39.778Z,100.00
2023-04-23T02:38:29.645Z,100.00
2023-04-23T02:43:22.058Z,100.00
2023-04-23T02:48:11.876Z,100.00
2023-04-23T02:53:01.732Z,100.00
2023-04-23T02:57:52.018Z,100.00
2023-04-23T03:02:44.902Z,100.00
2023-04-23T03:07:36.554Z,100.00
2023-04-23T03:12:27.268Z,100.00
2023-04-23T03:17:17.202Z,100.00
2023-04-23T03:22:09.702Z,100.00
2023-04-23T03:27:00.964Z,100.00
2023-04-23T03:31:50.796Z,100.00
2023-04-23T03:36:41.006Z,100.00
2023-04-23T03:41:33.756Z,100.00
2023-04-23T03:46:24.883Z,100.00
2023-04-23T03:51:16.277Z,100.00
2023-04-23T03:56:10.913Z,100.00
2023-04-23T04:01:13.069Z,100.00
2023-04-23T04:06:02.817Z,100.00
2023-04-23T04:10:52.518Z,100.00
2023-04-23T04:15:43.269Z,100.00
2023-04-23T04:20:36.062Z,100.00
2023-04-23T04:25:28.624Z,100.00
2023-04-23T04:30:18.875Z,100.00
2023-04-23T04:35:09.121Z,100.00
2023-04-23T04:40:01.592Z,100.00
2023-04-23T04:44:51.824Z,98.91
2023-04-23T04:49:41.422Z,99.06
2023-04-23T04:54:33.329Z,99.31
2023-04-23T04:59:26.740Z,99.41
2023-04-23T05:04:16.441Z,99.57
2023-04-23T05:09:06.677Z,98.36
2023-04-23T05:13:56.322Z,97.36
2023-04-23T05:18:48.512Z,97.70
2023-04-23T05:23:38.652Z,97.64
2023-04-23T05:28:28.393Z,98.26
2023-04-23T05:33:18.006Z,97.06
2023-04-23T05:38:15.040Z,97.31
2023-04-23T05:43:04.721Z,97.10
2023-04-23T05:47:54.847Z,96.33
2023-04-23T05:52:46.135Z,96.22
2023-04-23T05:57:38.922Z,94.68
2023-04-23T06:02:29.124Z,95.58
2023-04-23T06:07:21.581Z,94.18
2023-04-23T06:12:12.923Z,95.23
2023-04-23T06:17:06.645Z,94.35
2023-04-23T06:21:56.607Z,96.02
2023-04-23T06:26:46.409Z,97.02
2023-04-23T06:31:41.813Z,96.06
2023-04-23T06:36:34.187Z,94.86
2023-04-23T06:41:25.174Z,95.88
2023-04-23T06:46:31.294Z,94.98
2023-04-23T06:51:21.619Z,92.75
2023-04-23T06:56:14.184Z,94.21
2023-04-23T07:01:08.343Z,93.94
2023-04-23T07:06:03.669Z,94.26
2023-04-23T07:10:53.561Z,92.79
2023-04-23T07:15:46.691Z,93.21
2023-04-23T07:20:36.346Z,92.80
2023-04-23T07:25:26.485Z,92.94
2023-04-23T07:30:17.465Z,92.73
2023-04-23T07:35:11.651Z,92.92
2023-04-23T07:40:05.674Z,92.40
2023-04-23T07:44:57.392Z,92.49
2023-04-23T07:49:47.137Z,92.78
2023-04-23T07:54:39.408Z,92.88
2023-04-23T07:59:30.199Z,92.16
2023-04-23T08:04:21.159Z,92.99
2023-04-23T08:09:11.127Z,95.07
2023-04-23T08:14:03.751Z,97.21
2023-04-23T08:19:04.918Z,96.53
2023-04-23T08:23:55.807Z,98.35
2023-04-23T08:28:45.384Z,97.75
2023-04-23T08:33:37.504Z,89.54
2023-04-23T08:38:27.104Z,89.49
2023-04-23T08:43:19.319Z,91.25
2023-04-23T08:48:09.453Z,90.63
2023-04-23T08:53:02.032Z,87.11
2023-04-23T08:57:52.551Z,88.35
2023-04-23T09:02:43.710Z,86.23
2023-04-23T09:07:33.495Z,85.47
2023-04-23T09:12:26.067Z,91.50
2023-04-23T09:17:15.752Z,82.64
2023-04-23T09:22:05.613Z,80.25
2023-04-23T09:26:55.893Z,80.57
2023-04-23T09:31:49.635Z,70.59
2023-04-23T09:36:40.507Z,81.79
2023-04-23T09:41:31.905Z,75.88
2023-04-23T09:46:21.716Z,72.02
2023-04-23T09:51:16.689Z,78.43
2023-04-23T09:56:06.403Z,68.37
2023-04-23T10:00:56.956Z,66.16
2023-04-23T10:06:00.539Z,68.79
2023-04-23T10:11:00.161Z,68.06
2023-04-23T10:16:18.184Z,67.12
2023-04-23T10:21:12.735Z,65.54
2023-04-23T10:26:06.412Z,69.79
2023-04-23T10:30:57.369Z,64.67
2023-04-23T10:35:48.784Z,68.64
2023-04-23T10:40:41.174Z,66.81
2023-04-23T10:45:33.773Z,63.81
2023-04-23T10:50:27.496Z,64.57
2023-04-23T10:55:21.004Z,64.42
2023-04-23T11:00:12.930Z,64.25
2023-04-23T11:05:07.461Z,62.93
2023-04-23T11:09:57.911Z,62.05
2023-04-23T11:14:51.496Z,61.21
2023-04-23T11:19:42.019Z,60.97
2023-04-23T11:24:37.491Z,58.99
2023-04-23T11:29:28.107Z,58.63
2023-04-23T11:34:17.874Z,62.25
2023-04-23T11:39:08.673Z,63.24
2023-04-23T11:44:01.417Z,61.86
2023-04-23T11:48:51.971Z,60.09
2023-04-23T11:53:47.939Z,60.93
2023-04-23T11:58:39.271Z,60.93
2023-04-23T12:03:32.188Z,59.77
2023-04-23T12:08:23.472Z,58.86
2023-04-23T12:13:16.512Z,58.04
2023-04-23T12:18:12.846Z,79.40
2023-04-23T12:23:13.346Z,76.52
2023-04-23T12:28:05.647Z,70.17
2023-04-23T12:32:55.299Z,57.77
2023-04-23T12:37:45.594Z,55.92
2023-04-23T12:42:40.977Z,54.81
2023-04-23T12:47:30.593Z,53.50
2023-04-23T12:52:20.167Z,53.34
2023-04-23T12:57:10.578Z,71.65
2023-04-23T13:02:03.942Z,81.33
2023-04-23T13:06:54.804Z,86.24
2023-04-23T13:11:44.455Z,86.58
2023-04-23T13:16:45.126Z,87.38
2023-04-23T13:21:39.701Z,87.50
2023-04-23T13:26:37.357Z,86.64
2023-04-23T13:31:31.598Z,86.82
2023-04-23T13:36:33.452Z,88.79
2023-04-23T13:41:30.520Z,88.35
2023-04-23T13:46:20.409Z,89.20
2023-04-23T13:51:21.454Z,90.01
2023-04-23T13:56:16.070Z,87.01
2023-04-23T14:01:48.096Z,90.17
2023-04-23T14:07:01.442Z,89.61
2023-04-23T14:12:01.894Z,91.70
2023-04-23T14:16:59.562Z,95.12
2023-04-23T14:21:54.591Z,95.40
2023-04-23T14:26:50.024Z,99.35
2023-04-23T14:31:42.523Z,100.00
2023-04-23T14:36:37.459Z,97.34
2023-04-23T14:41:30.722Z,91.85
2023-04-23T14:46:23.610Z,90.92
2023-04-23T14:51:21.305Z,94.98
2023-04-23T14:56:13.604Z,95.14
2023-04-23T15:01:05.682Z,93.45
2023-04-23T15:05:59.084Z,93.53
2023-04-23T15:10:50.727Z,94.79
2023-04-23T15:15:46.574Z,98.97
2023-04-23T15:20:37.995Z,97.07
2023-04-23T15:25:28.851Z,96.59
2023-04-23T15:30:23.517Z,98.22
2023-04-23T15:35:17.253Z,96.40
2023-04-23T15:40:07.367Z,92.97
2023-04-23T15:44:57.497Z,93.03
2023-04-23T15:49:54.429Z,96.49
2023-04-23T15:54:49.735Z,98.48
2023-04-23T15:59:40.829Z,96.83
2023-04-23T16:04:31.833Z,99.93
2023-04-23T16:09:21.820Z,100.00
2023-04-23T16:14:15.240Z,100.00
2023-04-23T16:19:05.020Z,99.07
2023-04-23T16:23:54.730Z,100.00
2023-04-23T16:28:44.610Z,99.58
2023-04-23T16:33:37.049Z,100.00
2023-04-23T16:38:26.796Z,100.00
2023-04-23T16:43:16.646Z,100.00
2023-04-23T16:48:06.812Z,100.00
2023-04-23T16:52:59.398Z,100.00
2023-04-23T16:57:49.020Z,100.00
2023-04-23T17:02:39.461Z,100.00
2023-04-23T17:07:29.183Z,100.00
2023-04-23T17:12:23.399Z,100.00
2023-04-23T17:17:13.105Z,100.00
2023-04-23T17:22:02.772Z,100.00
2023-04-23T17:26:53.200Z,100.00
2023-04-23T17:31:45.458Z,100.00
2023-04-23T17:36:37.677Z,100.00
2023-04-23T17:41:27.392Z,100.00
2023-04-23T17:46:17.202Z,100.00
2023-04-23T17:51:09.524Z,100.00
2023-04-23T17:56:03.137Z,100.00
2023-04-23T18:00:53.208Z,100.00
2023-04-23T18:05:45.207Z,100.00
2023-04-23T18:10:37.471Z,100.00
2023-04-23T18:15:29.113Z,100.00
2023-04-23T18:20:19.108Z,100.00
2023-04-23T18:25:10.179Z,100.00
2023-04-23T18:30:02.429Z,100.00
2023-04-23T18:34:51.976Z,100.00
2023-04-23T18:39:42.042Z,100.00
2023-04-23T18:44:32.606Z,100.00
2023-04-23T18:49:41.208Z,100.00
2023-04-23T18:54:31.015Z,100.00
2023-04-23T18:59:21.708Z,100.00
2023-04-23T19:04:11.451Z,100.00
2023-04-23T19:09:06.609Z,100.00
2023-04-23T19:13:56.167Z,100.00
2023-04-23T19:18:46.103Z,99.59
2023-04-23T19:23:36.010Z,97.48
2023-04-23T19:28:28.567Z,98.96
2023-04-23T19:33:20.484Z,98.87
2023-04-23T19:38:10.457Z,100.00
2023-04-23T19:43:00.495Z,100.00
2023-04-23T19:47:52.813Z,100.00
2023-04-23T19:52:44.289Z,100.00
2023-04-23T19:57:33.959Z,100.00
2023-04-23T20:02:23.922Z,100.00
2023-04-23T20:07:17.628Z,100.00
2023-04-23T20:12:07.730Z,100.00
2023-04-23T20:16:58.717Z,100.00
2023-04-23T20:21:50.773Z,100.00
2023-04-23T20:26:43.707Z,100.00
2023-04-23T20:31:34.507Z,100.00
2023-04-23T20:36:29.264Z,100.00
2023-04-23T20:41:18.942Z,100.00
2023-04-23T20:46:12.013Z,100.00
2023-04-23T20:51:02.629Z,100.00
2023-04-23T20:55:52.258Z,100.00
2023-04-23T21:00:41.787Z,100.00
2023-04-23T21:05:35.070Z,100.00
2023-04-23T21:10:24.631Z,100.00
2023-04-23T21:15:16.180Z,100.00
2023-04-23T21:20:05.838Z,100.00
2023-04-23T21:24:58.068Z,100.00
2023-04-23T21:29:48.530Z,100.00
2023-04-23T21:34:39.362Z,100.00
2023-04-23T21:39:28.997Z,100.00
2023-04-23T21:44:21.861Z,100.00
2023-04-23T21:49:11.799Z,100.00
2023-04-23T21:54:01.377Z,100.00
2023-04-23T21:58:51.001Z,100.00
2023-04-23T22:03:47.006Z,100.00
2023-04-23T22:08:38.164Z,100.00
2023-04-23T22:13:28.118Z,100.00
2023-04-23T22:18:17.818Z,100.00
2023-04-23T22:23:10.307Z,100.00
2023-04-23T22:28:00.040Z,100.00
2023-04-23T22:32:51.997Z,100.00
2023-04-23T22:37:41.604Z,100.00
2023-04-23T22:42:34.101Z,100.00
2023-04-23T22:47:24.038Z,100.00
2023-04-23T22:52:14.543Z,100.00
2023-04-23T22:57:04.180Z,100.00
2023-04-23T23:01:57.968Z,100.00
2023-04-23T23:06:50.017Z,100.00
2023-04-23T23:11:39.732Z,100.00
2023-04-23T23:16:30.730Z,100.00
2023-04-23T23:21:22.956Z,100.00
2023-04-23T23:26:12.477Z,100.00
2023-04-23T23:31:02.135Z,100.00
2023-04-23T23:35:51.697Z,100.00
2023-04-23T23:40:44.439Z,100.00
2023-04-23T23:45:34.524Z,100.00
2023-04-23T23:50:24.374Z,100.00
2023-04-23T23:55:14.181Z,100.00
